Time;durP1;ratioP1;P1;durP2;ratioP2;P2;SDS_P1;SDS_P2;PMS_P1;PMS_P2;Temp;Humidity;BMP_temperature;BMP_pressure;BME280_temperature;BME280_humidity;BME280_pressure;Samples;Min_cycle;Max_cycle;Signal;HPM_P1;HPM_P2
2022/04/02 00:00:17;;;;;;;3.42;1.45;;;2.90;77.50;;;;;;5033346;28;20026;-66
2022/04/02 00:02:43;;;;;;;4.45;1.48;;;2.90;77.60;;;;;;5029719;28;20204;-66
2022/04/02 00:05:10;;;;;;;3.35;1.50;;;2.90;77.60;;;;;;5032624;28;20059;-66
2022/04/02 00:07:35;;;;;;;4.15;1.40;;;2.80;77.50;;;;;;5039669;28;20469;-65
2022/04/02 00:10:01;;;;;;;4.32;1.60;;;2.80;77.60;;;;;;5027341;28;20060;-66
2022/04/02 00:12:27;;;;;;;2.60;1.40;;;2.80;77.60;;;;;;5027343;28;20381;-67
2022/04/02 00:14:52;;;;;;;3.00;1.40;;;2.80;77.60;;;;;;5038223;28;20033;-67
2022/04/02 00:17:18;;;;;;;2.28;1.30;;;2.80;77.60;;;;;;5028584;28;20525;-65
2022/04/02 00:19:44;;;;;;;2.78;1.50;;;2.80;77.50;;;;;;5048394;28;20405;-66
2022/04/02 00:22:10;;;;;;;2.28;1.27;;;2.80;77.40;;;;;;5033926;28;20026;-67
2022/04/02 00:24:35;;;;;;;3.85;1.40;;;2.80;77.40;;;;;;5038250;28;20024;-66
2022/04/02 00:27:01;;;;;;;4.53;1.60;;;2.80;77.40;;;;;;5028182;28;20057;-66
2022/04/02 00:29:27;;;;;;;3.35;1.70;;;2.80;77.30;;;;;;5028846;28;20480;-66
2022/04/02 00:31:53;;;;;;;2.75;1.25;;;2.80;77.40;;;;;;5033221;28;20420;-66
2022/04/02 00:34:18;;;;;;;4.30;2.00;;;2.80;77.30;;;;;;5036666;28;20527;-67
2022/04/02 00:36:45;;;;;;;4.40;1.35;;;2.70;77.30;;;;;;5040968;28;20369;-66
2022/04/02 00:39:11;;;;;;;2.80;1.20;;;2.70;77.40;;;;;;5032544;28;20123;-66
2022/04/02 00:41:37;;;;;;;4.88;1.50;;;2.70;77.40;;;;;;5039169;28;20040;-66
2022/04/02 00:44:14;;;;;;;2.97;1.33;;;2.70;77.50;;;;;;5046550;28;20025;-66
2022/04/02 00:46:42;;;;;;;2.47;1.13;;;2.70;77.40;;;;;;5036135;28;20013;-66
2022/04/02 00:49:09;;;;;;;1.80;1.10;;;2.70;77.50;;;;;;5036020;28;20025;-66
2022/04/02 00:51:41;;;;;;;3.80;1.30;;;2.70;77.40;;;;;;5034789;28;20033;-65
2022/04/02 00:54:15;;;;;;;3.75;1.10;;;2.70;77.40;;;;;;5033269;28;20362;-66
2022/04/02 00:56:41;;;;;;;3.13;1.20;;;2.70;77.40;;;;;;5033493;28;20115;-66
2022/04/02 00:59:08;;;;;;;3.60;1.40;;;2.70;77.40;;;;;;5039310;28;20029;-66
2022/04/02 01:01:35;;;;;;;5.03;1.63;;;2.70;77.50;;;;;;5029733;28;20075;-66
2022/04/02 01:04:01;;;;;;;2.53;1.27;;;2.70;77.40;;;;;;5034921;28;20496;-66
2022/04/02 01:06:27;;;;;;;2.80;1.23;;;2.70;77.50;;;;;;5036123;28;20522;-66
2022/04/02 01:08:54;;;;;;;3.03;1.17;;;2.70;77.40;;;;;;5030570;28;20151;-66
2022/04/02 01:11:19;;;;;;;2.58;1.70;;;2.70;77.40;;;;;;5032842;28;20485;-66
2022/04/02 01:13:45;;;;;;;2.10;1.10;;;2.80;77.40;;;;;;5032917;28;20025;-67
2022/04/02 01:16:10;;;;;;;3.08;1.23;;;2.80;77.30;;;;;;5032489;28;20179;-66
2022/04/02 01:18:36;;;;;;;3.50;1.90;;;2.80;77.20;;;;;;5032610;28;20060;-66
2022/04/02 01:21:02;;;;;;;2.85;1.48;;;2.70;77.30;;;;;;5037001;28;20550;-66
2022/04/02 01:23:29;;;;;;;3.63;1.20;;;2.70;77.30;;;;;;5033510;28;20027;-66
2022/04/02 01:26:01;;;;;;;3.33;1.40;;;2.70;77.30;;;;;;5036038;28;20044;-67
2022/04/02 01:28:33;;;;;;;2.83;1.45;;;2.70;77.20;;;;;;5035255;28;20025;-66
2022/04/02 01:31:08;;;;;;;2.35;1.27;;;2.70;77.30;;;;;;5033051;28;20043;-66
2022/04/02 01:33:35;;;;;;;3.17;1.23;;;2.70;77.30;;;;;;5030140;28;20602;-66
2022/04/02 01:36:03;;;;;;;3.35;1.80;;;2.60;77.30;;;;;;5037687;28;20037;-66
2022/04/02 01:38:29;;;;;;;2.50;1.33;;;2.70;77.30;;;;;;5032541;28;20075;-66
2022/04/02 01:40:56;;;;;;;3.80;1.60;;;2.70;77.30;;;;;;5048665;28;20029;-66
2022/04/02 01:43:23;;;;;;;2.95;1.40;;;2.60;77.20;;;;;;5037260;28;20029;-66
2022/04/02 01:45:53;;;;;;;2.45;1.20;;;2.60;77.30;;;;;;5033581;28;20036;-66
2022/04/02 01:48:19;;;;;;;4.15;1.50;;;2.60;77.30;;;;;;5035133;28;20021;-66
2022/04/02 01:50:45;;;;;;;3.92;1.95;;;2.60;77.40;;;;;;5037725;28;20381;-65
2022/04/02 01:53:10;;;;;;;5.30;1.70;;;2.60;77.40;;;;;;5033263;28;20029;-67
2022/04/02 01:55:36;;;;;;;2.80;1.38;;;2.60;77.40;;;;;;5035491;28;20029;-67
2022/04/02 01:58:01;;;;;;;2.88;1.30;;;2.50;77.40;;;;;;5044549;28;20344;-67
2022/04/02 02:00:27;;;;;;;5.40;1.85;;;2.60;77.50;;;;;;5028938;28;20018;-67
2022/04/02 02:02:53;;;;;;;2.40;1.42;;;2.60;77.40;;;;;;5033725;28;20025;-67
2022/04/02 02:05:18;;;;;;;3.33;1.40;;;2.60;77.20;;;;;;5031465;28;20457;-67
2022/04/02 02:07:50;;;;;;;4.78;1.42;;;2.60;77.00;;;;;;5031615;28;20364;-66
2022/04/02 02:10:18;;;;;;;3.65;1.40;;;2.60;76.80;;;;;;5031397;28;20020;-67
2022/04/02 02:12:43;;;;;;;3.10;1.60;;;2.60;76.60;;;;;;5032166;28;20400;-67
2022/04/02 02:15:09;;;;;;;4.68;1.40;;;2.60;76.60;;;;;;5037331;28;20029;-66
2022/04/02 02:17:34;;;;;;;2.35;1.00;;;2.60;76.50;;;;;;5034526;28;20041;-65
2022/04/02 02:20:00;;;;;;;2.72;1.33;;;2.60;76.40;;;;;;5031412;28;20029;-66
2022/04/02 02:22:25;;;;;;;2.22;1.05;;;2.70;76.30;;;;;;5030197;28;20541;-66
2022/04/02 02:24:51;;;;;;;2.38;1.30;;;2.60;76.30;;;;;;5034500;28;20512;-67
2022/04/02 02:27:17;;;;;;;3.47;1.10;;;2.70;76.30;;;;;;5046981;28;20441;-65
2022/04/02 02:29:42;;;;;;;3.15;1.52;;;2.70;76.30;;;;;;5035804;28;20076;-66
2022/04/02 02:32:08;;;;;;;4.03;1.30;;;2.60;76.30;;;;;;5038168;28;20481;-66
2022/04/02 02:37:18;;;;;;;3.28;1.30;;;2.60;76.20;;;;;;5034746;28;20048;-66
2022/04/02 02:39:44;;;;;;;2.35;1.25;;;2.60;76.10;;;;;;5036140;28;20025;-65
2022/04/02 02:42:10;;;;;;;2.63;1.33;;;2.60;76.10;;;;;;5034102;28;20024;-66
2022/04/02 02:44:35;;;;;;;2.90;1.25;;;2.60;76.10;;;;;;5031511;28;20017;-66
2022/04/02 02:47:01;;;;;;;3.13;1.83;;;2.60;76.10;;;;;;5036332;28;20489;-66
2022/04/02 02:49:26;;;;;;;3.67;1.25;;;2.60;76.10;;;;;;5031149;28;20039;-67
2022/04/02 02:51:52;;;;;;;2.65;1.42;;;2.60;76.10;;;;;;5038025;28;20021;-66
2022/04/02 02:54:17;;;;;;;3.53;1.55;;;2.60;76.20;;;;;;5030506;28;20108;-66
2022/04/02 02:56:43;;;;;;;2.13;1.13;;;2.60;76.20;;;;;;5027089;28;20436;-66
2022/04/02 02:59:08;;;;;;;3.38;1.27;;;2.60;76.10;;;;;;5031056;28;20037;-66
2022/04/02 03:01:34;;;;;;;1.90;1.02;;;2.60;76.20;;;;;;5038243;28;20026;-66
2022/04/02 03:03:59;;;;;;;2.70;1.50;;;2.60;76.30;;;;;;5033280;28;20029;-66
2022/04/02 03:06:25;;;;;;;3.33;1.63;;;2.60;76.40;;;;;;5027661;28;20025;-66
2022/04/02 03:08:50;;;;;;;2.60;1.23;;;2.50;76.30;;;;;;5030890;28;20075;-67
2022/04/02 03:11:16;;;;;;;1.77;1.00;;;2.50;76.40;;;;;;5036106;28;20101;-65
2022/04/02 03:13:42;;;;;;;3.30;1.40;;;2.50;76.40;;;;;;5036466;28;20387;-65
2022/04/02 03:16:08;;;;;;;3.10;1.27;;;2.50;76.50;;;;;;5028326;28;20017;-66
2022/04/02 03:18:34;;;;;;;1.80;1.00;;;2.50;76.50;;;;;;5030917;28;20107;-65
2022/04/02 03:20:59;;;;;;;2.45;1.20;;;2.50;76.60;;;;;;5034251;28;20037;-65
2022/04/02 03:23:25;;;;;;;2.75;1.27;;;2.50;76.70;;;;;;5035135;28;20577;-65
2022/04/02 03:25:51;;;;;;;3.05;1.38;;;2.50;76.80;;;;;;5029717;28;20054;-65
2022/04/02 03:28:16;;;;;;;1.90;1.00;;;2.50;76.80;;;;;;5033270;28;20473;-65
2022/04/02 03:30:42;;;;;;;2.30;1.23;;;2.50;76.90;;;;;;5033564;28;20132;-65
2022/04/02 03:33:09;;;;;;;2.67;1.20;;;2.40;76.90;;;;;;5030934;28;20429;-65
2022/04/02 03:35:35;;;;;;;4.78;1.15;;;2.50;77.00;;;;;;5033144;28;20028;-66
2022/04/02 03:38:01;;;;;;;2.92;1.00;;;2.50;77.10;;;;;;5030690;28;20025;-65
2022/04/02 03:40:27;;;;;;;1.85;1.08;;;2.40;77.00;;;;;;5030601;28;20066;-67
2022/04/02 03:42:53;;;;;;;2.10;0.88;;;2.40;77.00;;;;;;5033316;28;20041;-66
2022/04/02 03:45:22;;;;;;;3.45;1.20;;;2.50;77.20;;;;;;5027826;28;20385;-66
2022/04/02 03:47:48;;;;;;;2.65;1.08;;;2.40;77.20;;;;;;5027658;28;20336;-66
2022/04/02 03:50:15;;;;;;;2.40;1.42;;;2.40;77.30;;;;;;5033808;28;20021;-66
2022/04/02 03:52:40;;;;;;;2.60;0.90;;;2.40;77.30;;;;;;5040268;28;20017;-66
2022/04/02 03:55:08;;;;;;;1.85;0.95;;;2.40;77.40;;;;;;5044424;28;20037;-66
2022/04/02 03:57:35;;;;;;;2.08;1.08;;;2.40;77.50;;;;;;5033808;28;20035;-66
2022/04/02 04:00:03;;;;;;;2.70;1.00;;;2.40;77.50;;;;;;5035888;28;20025;-66
2022/04/02 04:02:29;;;;;;;2.78;0.90;;;2.30;77.60;;;;;;5029075;28;20429;-66
2022/04/02 04:04:54;;;;;;;2.70;1.35;;;2.30;77.60;;;;;;5030971;28;20526;-66
2022/04/02 04:07:20;;;;;;;4.18;1.52;;;2.30;77.80;;;;;;5033880;28;20388;-66
2022/04/02 04:09:45;;;;;;;2.72;1.27;;;2.30;78.00;;;;;;5034160;28;20037;-66
2022/04/02 04:12:11;;;;;;;3.13;1.80;;;2.20;78.00;;;;;;5036581;28;20520;-66
2022/04/02 04:14:37;;;;;;;3.67;1.40;;;2.20;78.10;;;;;;5033867;28;20032;-66
2022/04/02 04:17:03;;;;;;;2.67;1.00;;;2.20;78.30;;;;;;5034062;28;20013;-66
2022/04/02 04:19:28;;;;;;;4.75;1.15;;;2.20;78.30;;;;;;5036207;28;20037;-66
2022/04/02 04:21:55;;;;;;;3.13;1.00;;;2.20;78.40;;;;;;5037659;28;20477;-65
2022/04/02 04:24:20;;;;;;;2.78;1.00;;;2.20;78.40;;;;;;5031310;28;20024;-66
2022/04/02 04:26:46;;;;;;;5.07;1.20;;;2.20;78.30;;;;;;5037200;28;20021;-66
2022/04/02 04:29:11;;;;;;;2.30;1.10;;;2.20;78.40;;;;;;5033809;28;20030;-65
2022/04/02 04:31:38;;;;;;;4.20;1.58;;;2.20;78.40;;;;;;5043655;28;20156;-66
2022/04/02 04:34:04;;;;;;;2.60;1.50;;;2.20;78.40;;;;;;5033698;28;20025;-66
2022/04/02 04:36:30;;;;;;;3.38;1.30;;;2.20;78.50;;;;;;5031092;28;20022;-65
2022/04/02 04:38:57;;;;;;;1.90;1.23;;;2.20;78.60;;;;;;5033797;28;20029;-66
2022/04/02 04:41:23;;;;;;;2.78;1.10;;;2.20;78.60;;;;;;5036456;28;20121;-66
2022/04/02 04:43:49;;;;;;;2.35;1.00;;;2.20;78.70;;;;;;5042552;28;20033;-66
2022/04/02 04:46:16;;;;;;;2.28;1.80;;;2.20;78.80;;;;;;5037034;28;20032;-66
2022/04/02 04:48:42;;;;;;;2.70;1.10;;;2.20;78.70;;;;;;5046985;28;20172;-66
2022/04/02 04:51:09;;;;;;;2.35;1.20;;;2.20;78.70;;;;;;5037681;28;20108;-66
2022/04/02 04:53:35;;;;;;;3.15;1.15;;;2.20;78.70;;;;;;5044347;28;20040;-66
2022/04/02 04:56:01;;;;;;;2.78;1.25;;;2.20;78.70;;;;;;5035912;28;20494;-66
2022/04/02 04:58:29;;;;;;;2.40;1.17;;;2.20;78.70;;;;;;5045812;28;20116;-66
2022/04/02 05:00:57;;;;;;;2.80;1.20;;;2.20;78.70;;;;;;5032869;28;20106;-66
2022/04/02 05:03:23;;;;;;;3.50;0.82;;;2.20;78.80;;;;;;5034917;28;20017;-66
2022/04/02 05:05:49;;;;;;;4.15;1.50;;;2.20;78.70;;;;;;5032688;28;20107;-66
2022/04/02 05:08:14;;;;;;;3.00;1.30;;;2.20;78.70;;;;;;5038235;28;20493;-66
2022/04/02 05:10:41;;;;;;;3.30;1.23;;;2.20;78.70;;;;;;5033133;28;20025;-67
2022/04/02 05:13:12;;;;;;;2.20;1.00;;;2.20;78.70;;;;;;5035607;28;20021;-66
2022/04/02 05:15:40;;;;;;;4.72;1.60;;;2.20;78.60;;;;;;5035750;28;20112;-66
2022/04/02 05:18:05;;;;;;;4.35;1.30;;;2.20;78.70;;;;;;5034379;28;20036;-65
2022/04/02 05:20:31;;;;;;;3.10;1.45;;;2.20;78.70;;;;;;5045273;28;20502;-66
2022/04/02 05:22:56;;;;;;;3.47;1.77;;;2.20;78.80;;;;;;5038156;28;20040;-66
2022/04/02 05:25:22;;;;;;;2.75;1.23;;;2.20;79.00;;;;;;5032830;28;20482;-66
2022/04/02 05:27:47;;;;;;;3.15;1.45;;;2.20;78.90;;;;;;5036194;28;20025;-67
2022/04/02 05:30:13;;;;;;;2.38;1.00;;;2.20;79.00;;;;;;5031752;28;20028;-66
2022/04/02 05:32:39;;;;;;;2.70;1.33;;;2.20;78.90;;;;;;5041778;28;20022;-67
2022/04/02 05:35:05;;;;;;;3.03;1.35;;;2.30;78.90;;;;;;5032106;28;20319;-67
2022/04/02 05:37:31;;;;;;;3.58;1.30;;;2.20;78.90;;;;;;5033682;28;20075;-67
2022/04/02 05:39:56;;;;;;;3.65;1.58;;;2.30;78.90;;;;;;5033688;28;20474;-67
2022/04/02 05:42:23;;;;;;;2.50;1.40;;;2.30;78.90;;;;;;5048898;28;20033;-67
2022/04/02 05:44:49;;;;;;;2.70;1.20;;;2.30;78.90;;;;;;5033707;28;20025;-67
2022/04/02 05:47:15;;;;;;;2.33;1.27;;;2.30;79.00;;;;;;5033543;28;20024;-67
2022/04/02 05:49:41;;;;;;;2.47;1.35;;;2.30;79.00;;;;;;5033589;28;20029;-67
2022/04/02 05:52:07;;;;;;;3.00;1.15;;;2.40;79.00;;;;;;5033467;28;20033;-67
2022/04/02 05:54:34;;;;;;;3.78;1.55;;;2.40;79.00;;;;;;5032241;28;20037;-67
2022/04/02 05:57:00;;;;;;;2.67;1.33;;;2.40;79.10;;;;;;5033104;28;20112;-67
2022/04/02 05:59:26;;;;;;;2.88;1.30;;;2.40;79.10;;;;;;5033066;28;20141;-66
2022/04/02 06:01:51;;;;;;;3.65;1.40;;;2.40;79.20;;;;;;5032974;28;20452;-67
2022/04/02 06:04:17;;;;;;;3.00;1.33;;;2.40;79.20;;;;;;5033207;28;20064;-66
2022/04/02 06:06:43;;;;;;;4.43;1.08;;;2.40;79.20;;;;;;5033457;28;20025;-67
2022/04/02 06:09:08;;;;;;;3.35;1.45;;;2.40;79.20;;;;;;5040096;28;20026;-67
2022/04/02 06:11:33;;;;;;;4.30;1.83;;;2.40;79.20;;;;;;5047563;28;20040;-67
2022/04/02 06:14:00;;;;;;;2.72;1.45;;;2.50;79.30;;;;;;5048454;28;20031;-67
2022/04/02 06:16:26;;;;;;;2.75;1.20;;;2.50;79.30;;;;;;5045951;28;20039;-67
2022/04/02 06:18:52;;;;;;;3.13;1.30;;;2.50;79.30;;;;;;5039855;28;20049;-67
2022/04/02 06:21:19;;;;;;;6.22;1.52;;;2.50;79.30;;;;;;5047464;28;20503;-67
2022/04/02 06:23:44;;;;;;;3.90;1.60;;;2.50;79.40;;;;;;5032644;28;20025;-66
2022/04/02 06:26:10;;;;;;;4.43;1.55;;;2.60;79.40;;;;;;5038591;28;20013;-67
2022/04/02 06:28:40;;;;;;;2.10;1.30;;;2.50;79.40;;;;;;5051555;28;20120;-67
2022/04/02 06:31:06;;;;;;;2.22;1.40;;;2.60;79.60;;;;;;5051221;28;20559;-67
2022/04/02 06:33:32;;;;;;;2.63;1.13;;;2.60;79.70;;;;;;5051429;28;20045;-68
2022/04/02 06:35:59;;;;;;;3.08;1.33;;;2.60;79.60;;;;;;5049295;28;20032;-67
2022/04/02 06:38:24;;;;;;;2.35;1.40;;;2.70;79.70;;;;;;5043824;28;20068;-67
2022/04/02 06:40:50;;;;;;;4.60;1.90;;;2.70;79.60;;;;;;5049665;28;20624;-67
2022/04/02 06:43:16;;;;;;;3.08;1.80;;;2.70;79.70;;;;;;5050832;28;20024;-67
2022/04/02 06:45:42;;;;;;;2.60;1.33;;;2.80;79.70;;;;;;5045150;28;20017;-67
2022/04/02 06:48:08;;;;;;;2.78;1.67;;;2.80;79.70;;;;;;5044679;28;20156;-68
2022/04/02 06:50:33;;;;;;;3.65;1.58;;;2.90;79.70;;;;;;5049981;28;20381;-67
2022/04/02 06:52:59;;;;;;;4.22;1.50;;;2.90;79.70;;;;;;5047850;28;20086;-67
2022/04/02 06:55:24;;;;;;;3.05;2.28;;;3.00;79.80;;;;;;5049331;28;20024;-67
2022/04/02 06:57:53;;;;;;;2.53;1.13;;;3.00;79.60;;;;;;5045452;28;20022;-67
2022/04/02 07:00:20;;;;;;;4.35;1.75;;;3.00;79.60;;;;;;5050420;28;20033;-67
2022/04/02 07:02:45;;;;;;;2.92;1.70;;;3.10;79.60;;;;;;5052316;28;20032;-67
2022/04/02 07:05:11;;;;;;;3.45;1.50;;;3.10;79.60;;;;;;5052158;28;20036;-66
2022/04/02 07:07:37;;;;;;;3.38;1.92;;;3.20;79.60;;;;;;5052269;28;20392;-66
2022/04/02 07:10:04;;;;;;;4.15;1.90;;;3.20;79.60;;;;;;5052152;28;20126;-67
2022/04/02 07:12:31;;;;;;;2.60;1.60;;;3.30;79.70;;;;;;5051944;28;20033;-66
2022/04/02 07:14:57;;;;;;;5.53;1.98;;;3.30;79.70;;;;;;5050943;28;20024;-66
2022/04/02 07:17:22;;;;;;;3.95;1.85;;;3.40;79.70;;;;;;5051810;28;20029;-66
2022/04/02 07:19:50;;;;;;;6.35;2.10;;;3.40;79.70;;;;;;5052053;28;20132;-66
2022/04/02 07:22:17;;;;;;;4.18;2.58;;;3.50;79.60;;;;;;5051786;28;20029;-67
2022/04/02 07:24:44;;;;;;;8.23;2.55;;;3.50;79.40;;;;;;5049830;28;20039;-67
2022/04/02 07:27:09;;;;;;;3.67;1.90;;;3.60;79.40;;;;;;5047369;28;20027;-67
2022/04/02 07:29:35;;;;;;;2.92;1.83;;;3.70;79.30;;;;;;5049848;28;20021;-67
2022/04/02 07:32:01;;;;;;;3.67;1.80;;;3.70;79.00;;;;;;5050006;28;20025;-68
2022/04/02 07:34:27;;;;;;;2.85;1.73;;;3.80;78.80;;;;;;5049949;28;20037;-69
2022/04/02 07:37:23;;;;;;;5.03;2.20;;;3.80;78.60;;;;;;5047502;28;20108;-68
2022/04/02 07:40:12;;;;;;;5.55;1.98;;;4.00;78.50;;;;;;5051803;28;20028;-69
2022/04/02 07:42:43;;;;;;;3.53;1.80;;;4.10;78.60;;;;;;5052809;28;20111;-69
2022/04/02 07:45:13;;;;;;;3.08;1.80;;;4.10;78.60;;;;;;5054159;28;20021;-69
2022/04/02 07:47:44;;;;;;;2.58;1.80;;;4.20;78.30;;;;;;5054178;28;20092;-69
2022/04/02 07:50:15;;;;;;;2.80;1.70;;;4.30;78.20;;;;;;5034943;28;20029;-69
2022/04/02 07:52:45;;;;;;;3.13;2.05;;;4.40;78.10;;;;;;5053123;28;20025;-68
2022/04/02 07:55:12;;;;;;;3.63;2.05;;;4.50;78.00;;;;;;5049618;28;20029;-69
2022/04/02 07:57:46;;;;;;;2.95;1.58;;;4.50;77.90;;;;;;5052440;28;20025;-69
2022/04/02 08:00:14;;;;;;;3.42;2.03;;;4.70;77.90;;;;;;5036239;28;20045;-68
2022/04/02 08:02:45;;;;;;;5.22;2.28;;;4.70;77.30;;;;;;5051279;28;20034;-69
2022/04/02 08:05:19;;;;;;;3.03;1.50;;;4.70;77.00;;;;;;5054884;28;20376;-69
2022/04/02 08:07:54;;;;;;;4.07;2.22;;;4.80;77.10;;;;;;5055591;28;20480;-68
2022/04/02 08:10:23;;;;;;;5.00;2.08;;;4.90;77.20;;;;;;5047949;28;20021;-69
2022/04/02 08:12:50;;;;;;;4.18;2.50;;;4.90;76.90;;;;;;5050801;28;20025;-69
2022/04/02 08:15:18;;;;;;;4.75;2.20;;;5.00;76.30;;;;;;5054925;28;20025;-69
2022/04/02 08:17:45;;;;;;;4.15;2.58;;;5.00;76.20;;;;;;5053799;28;20033;-68
2022/04/02 08:20:11;;;;;;;5.50;2.53;;;5.20;76.40;;;;;;5055257;28;20035;-68
2022/04/02 08:22:37;;;;;;;4.50;1.88;;;5.20;76.30;;;;;;5054904;28;20458;-67
2022/04/02 08:25:04;;;;;;;4.15;1.67;;;5.40;76.40;;;;;;5054785;28;20103;-68
2022/04/02 08:27:33;;;;;;;3.42;1.88;;;5.40;76.10;;;;;;5054821;28;20424;-68
2022/04/02 08:30:06;;;;;;;4.85;2.20;;;5.60;76.20;;;;;;5053418;28;20028;-69
2022/04/02 08:32:53;;;;;;;3.85;2.00;;;5.70;75.40;;;;;;5054798;28;20116;-68
2022/04/02 08:35:40;;;;;;;6.32;2.05;;;5.80;74.70;;;;;;5054057;28;20102;-69
2022/04/02 08:38:31;;;;;;;2.70;1.80;;;5.90;74.50;;;;;;5049975;28;20029;-69
2022/04/02 08:41:31;;;;;;;4.97;2.17;;;6.00;74.30;;;;;;5046054;28;20033;-69
2022/04/02 08:44:24;;;;;;;4.55;2.33;;;6.00;74.00;;;;;;5034800;28;20489;-69
2022/04/02 08:47:11;;;;;;;4.05;2.03;;;6.00;73.80;;;;;;5037033;28;20490;-66
2022/04/02 08:49:40;;;;;;;4.25;2.00;;;6.00;73.90;;;;;;5049794;28;20025;-66
2022/04/02 08:52:15;;;;;;;3.92;2.15;;;6.00;73.30;;;;;;5051868;28;20048;-66
2022/04/02 08:54:46;;;;;;;5.15;2.00;;;6.10;72.70;;;;;;5052862;28;20053;-66
2022/04/02 08:57:26;;;;;;;4.05;2.50;;;6.20;72.60;;;;;;5049299;28;20531;-66
2022/04/02 09:00:12;;;;;;;3.63;1.85;;;6.30;72.10;;;;;;5044868;28;20054;-66
2022/04/02 09:02:53;;;;;;;4.05;2.08;;;6.20;71.30;;;;;;5050891;28;20025;-66
2022/04/02 09:05:28;;;;;;;3.13;2.10;;;6.20;71.60;;;;;;5051084;28;20021;-66
2022/04/02 09:08:18;;;;;;;4.43;2.10;;;6.20;71.50;;;;;;5052921;28;20021;-66
2022/04/02 09:11:10;;;;;;;4.00;2.10;;;6.20;71.50;;;;;;5050578;28;20020;-66
2022/04/02 09:14:03;;;;;;;4.03;2.72;;;6.30;71.70;;;;;;5050574;28;20448;-66
2022/04/02 09:16:36;;;;;;;3.45;2.25;;;6.30;71.10;;;;;;5052148;28;20402;-66
2022/04/02 09:19:13;;;;;;;5.25;2.47;;;6.30;70.70;;;;;;5052520;28;20033;-66
2022/04/02 09:21:45;;;;;;;4.30;2.35;;;6.20;70.90;;;;;;5051258;28;20031;-66
2022/04/02 09:24:18;;;;;;;4.30;2.40;;;6.30;70.70;;;;;;5052269;28;20049;-66
2022/04/02 09:27:08;;;;;;;6.30;2.78;;;6.30;70.20;;;;;;5052740;28;20024;-66
2022/04/02 09:30:07;;;;;;;3.35;2.67;;;6.30;70.10;;;;;;5052421;28;20070;-67
2022/04/02 09:33:19;;;;;;;5.25;2.67;;;6.40;69.70;;;;;;5062691;28;20022;-66
2022/04/02 09:35:54;;;;;;;4.55;2.08;;;6.40;69.10;;;;;;5053126;28;20025;-66
2022/04/02 09:38:38;;;;;;;3.28;2.10;;;6.40;69.20;;;;;;5053760;28;20036;-67
2022/04/02 09:41:16;;;;;;;3.72;2.17;;;6.50;69.30;;;;;;5053670;28;20036;-66
2022/04/02 09:44:20;;;;;;;3.25;2.20;;;6.50;69.60;;;;;;5053860;28;20099;-66
2022/04/02 09:47:05;;;;;;;5.07;2.45;;;6.80;69.60;;;;;;5031488;28;20057;-66
2022/04/02 09:49:49;;;;;;;3.92;2.13;;;6.80;68.30;;;;;;5031515;28;20444;-66
2022/04/02 09:52:21;;;;;;;3.85;2.30;;;6.80;67.10;;;;;;5047353;28;20041;-67
2022/04/02 09:55:07;;;;;;;4.65;1.95;;;6.80;66.80;;;;;;5053698;28;20028;-66
2022/04/02 09:57:48;;;;;;;3.28;2.17;;;6.80;66.50;;;;;;5052207;28;20400;-66
2022/04/02 10:00:18;;;;;;;4.75;2.13;;;6.80;66.20;;;;;;5053135;28;20025;-66
2022/04/02 10:03:03;;;;;;;;;;;6.70;66.20;;;;;;5053601;28;20025;-66
2022/04/02 10:06:00;;;;;;;4.40;1.80;;;6.50;66.10;;;;;;5053204;28;20257;-66
2022/04/02 10:08:46;;;;;;;4.10;2.28;;;6.40;66.70;;;;;;5053333;28;20057;-65
2022/04/02 10:11:16;;;;;;;3.40;2.38;;;6.40;67.60;;;;;;5053070;28;20048;-66
2022/04/02 10:13:44;;;;;;;4.13;1.88;;;6.30;66.90;;;;;;5046579;28;20029;-66
2022/04/02 10:16:12;;;;;;;3.33;1.90;;;6.30;66.90;;;;;;5050450;28;20036;-66
2022/04/02 10:18:40;;;;;;;3.35;2.47;;;6.40;67.10;;;;;;5052234;28;20135;-66
2022/04/02 10:21:06;;;;;;;3.63;1.83;;;6.40;66.60;;;;;;5054595;28;20067;-65
2022/04/02 10:23:35;;;;;;;4.68;1.90;;;6.50;66.00;;;;;;5040430;28;20057;-65
2022/04/02 10:26:12;;;;;;;4.65;1.95;;;6.80;65.90;;;;;;5048782;28;20094;-66
2022/04/02 10:28:54;;;;;;;4.35;1.88;;;7.20;64.80;;;;;;5047684;28;20021;-69
2022/04/02 10:31:49;;;;;;;3.28;1.65;;;7.50;63.70;;;;;;5049985;28;20806;-68
2022/04/02 10:34:40;;;;;;;2.70;1.38;;;7.50;60.10;;;;;;5032368;28;20485;-68
2022/04/02 10:37:14;;;;;;;2.63;1.40;;;7.40;59.50;;;;;;5041326;28;20330;-68
2022/04/02 10:40:02;;;;;;;2.97;1.30;;;7.40;60.10;;;;;;5051125;28;20025;-69
2022/04/02 10:42:39;;;;;;;3.17;1.33;;;7.60;60.40;;;;;;5039769;28;20059;-69
2022/04/02 10:45:13;;;;;;;5.00;1.42;;;7.80;60.10;;;;;;5038855;28;20028;-68
2022/04/02 10:47:47;;;;;;;3.08;1.30;;;7.80;59.10;;;;;;5065011;28;20161;-68
2022/04/02 10:50:17;;;;;;;3.53;1.13;;;7.80;58.90;;;;;;5050622;28;20073;-67
2022/04/02 10:52:43;;;;;;;;;;;7.80;58.10;;;;;;5058864;28;20112;-68
2022/04/02 10:55:12;;;;;;;2.92;1.10;;;7.60;57.40;;;;;;5063026;28;19915;-68
2022/04/02 10:57:37;;;;;;;4.13;1.23;;;7.50;57.40;;;;;;5055674;28;20155;-68
2022/04/02 11:00:07;;;;;;;2.20;0.90;;;7.60;57.90;;;;;;5067453;28;20435;-68
2022/04/02 11:03:03;;;;;;;1.92;0.90;;;7.80;58.10;;;;;;5050583;28;20568;-68
2022/04/02 11:05:37;;;;;;;2.85;1.10;;;8.50;57.10;;;;;;5051922;28;20028;-68
2022/04/02 11:08:10;;;;;;;2.30;1.02;;;8.70;55.70;;;;;;5057741;28;20028;-68
2022/04/02 11:10:36;;;;;;;2.60;1.20;;;8.60;55.10;;;;;;5059514;28;20614;-68
2022/04/02 11:13:04;;;;;;;2.00;0.95;;;8.60;55.60;;;;;;5058714;28;20033;-68
2022/04/02 11:15:36;;;;;;;4.25;1.40;;;9.20;57.00;;;;;;5066060;28;20027;-69
2022/04/02 11:18:02;;;;;;;3.55;1.42;;;10.20;54.00;;;;;;5054657;28;20127;-68
2022/04/02 11:20:32;;;;;;;2.50;1.20;;;10.50;52.60;;;;;;5064843;28;20128;-68
2022/04/02 11:23:12;;;;;;;2.70;1.00;;;10.40;51.70;;;;;;5055267;28;20041;-68
2022/04/02 11:25:44;;;;;;;1.83;0.82;;;10.60;51.10;;;;;;5051143;28;20021;-69
2022/04/02 11:28:13;;;;;;;2.20;0.65;;;11.60;50.30;;;;;;5067306;28;20025;-69
2022/04/02 11:30:41;;;;;;;3.30;0.90;;;11.50;47.50;;;;;;5059615;28;20472;-68
2022/04/02 11:33:14;;;;;;;2.40;0.70;;;11.00;47.10;;;;;;5057848;28;20037;-69
2022/04/02 11:35:45;;;;;;;2.63;0.80;;;11.30;48.10;;;;;;5066439;28;20031;-69
2022/04/02 11:38:23;;;;;;;2.10;0.70;;;12.60;48.20;;;;;;5055330;28;20108;-69
2022/04/02 11:41:10;;;;;;;2.95;0.95;;;13.10;46.40;;;;;;5070805;28;20500;-68
2022/04/02 11:43:37;;;;;;;1.98;0.80;;;13.10;45.20;;;;;;5050477;28;20040;-68
2022/04/02 11:46:05;;;;;;;1.42;0.60;;;14.20;45.80;;;;;;5048121;28;20029;-68
2022/04/02 11:48:33;;;;;;;1.20;0.70;;;16.00;44.20;;;;;;5045805;28;20028;-69
2022/04/02 11:51:19;;;;;;;2.63;1.08;;;17.00;41.00;;;;;;5047643;28;20033;-69
2022/04/02 11:53:45;;;;;;;1.85;0.80;;;18.60;40.20;;;;;;5067839;28;20025;-68
2022/04/02 11:56:31;;;;;;;1.67;0.73;;;18.50;38.10;;;;;;5054974;28;20379;-68
2022/04/02 11:59:06;;;;;;;1.45;1.00;;;17.20;37.70;;;;;;5060489;28;20032;-69
2022/04/02 12:01:51;;;;;;;2.65;0.88;;;15.70;38.00;;;;;;5066405;28;20136;-69
2022/04/02 12:04:18;;;;;;;3.30;1.15;;;14.50;39.80;;;;;;5041307;28;20028;-69
2022/04/02 12:06:46;;;;;;;2.08;0.90;;;13.40;40.60;;;;;;5060976;28;20029;-68
2022/04/02 12:09:13;;;;;;;1.13;0.88;;;13.00;42.40;;;;;;5051450;28;20070;-69
2022/04/02 12:11:41;;;;;;;2.53;0.90;;;12.60;43.50;;;;;;5051727;28;20460;-68
2022/04/02 12:14:07;;;;;;;2.17;0.80;;;12.40;44.20;;;;;;5051041;28;20037;-68
2022/04/02 12:16:33;;;;;;;1.67;0.60;;;12.30;44.90;;;;;;5051784;28;20415;-68
2022/04/02 12:18:58;;;;;;;4.30;1.35;;;12.50;44.40;;;;;;5051316;28;20045;-68
2022/04/02 12:21:36;;;;;;;2.20;1.35;;;12.80;42.20;;;;;;5051261;28;20047;-68
2022/04/02 12:24:04;;;;;;;2.55;0.90;;;13.20;41.60;;;;;;5051453;28;20483;-68
2022/04/02 12:26:30;;;;;;;1.65;0.75;;;13.10;41.40;;;;;;5052162;28;20021;-68
2022/04/02 12:29:00;;;;;;;3.08;1.23;;;12.70;42.00;;;;;;5055160;28;20512;-69
2022/04/02 12:31:27;;;;;;;2.65;1.02;;;12.40;42.80;;;;;;5055039;28;20036;-67
2022/04/02 12:33:54;;;;;;;4.03;1.08;;;12.50;43.70;;;;;;5055092;28;20021;-69
2022/04/02 12:36:43;;;;;;;1.75;0.95;;;12.20;44.40;;;;;;5054962;28;20033;-68
2022/04/02 12:39:10;;;;;;;3.37;1.10;;;11.80;45.30;;;;;;5055080;28;20032;-69
2022/04/02 12:41:48;;;;;;;3.55;1.05;;;11.40;46.30;;;;;;5054910;28;20029;-68
2022/04/02 12:44:19;;;;;;;1.65;0.90;;;11.30;46.80;;;;;;5054797;28;20101;-70
2022/04/02 12:46:45;;;;;;;2.45;0.95;;;11.10;47.60;;;;;;5054589;28;20108;-69
2022/04/02 12:49:31;;;;;;;1.10;0.70;;;11.70;48.20;;;;;;5054657;28;20100;-68
2022/04/02 12:52:14;;;;;;;1.90;0.88;;;13.90;47.30;;;;;;5054449;28;20111;-68
2022/04/02 12:54:45;;;;;;;1.83;1.08;;;15.30;44.10;;;;;;5054672;28;20037;-68
2022/04/02 12:57:15;;;;;;;1.25;0.68;;;15.60;40.90;;;;;;5054440;28;20024;-68
2022/04/02 12:59:50;;;;;;;2.10;1.00;;;15.10;40.60;;;;;;5054679;28;20381;-68
2022/04/02 13:02:20;;;;;;;1.83;0.80;;;14.50;40.90;;;;;;5054362;28;20033;-68
2022/04/02 13:04:52;;;;;;;;;;;13.90;41.70;;;;;;5054889;28;20108;-68
2022/04/02 13:07:21;;;;;;;2.15;1.08;;;13.10;42.00;;;;;;5052953;28;19912;-68
2022/04/02 13:09:48;;;;;;;4.73;1.10;;;12.30;43.60;;;;;;5054471;28;20108;-68
2022/04/02 13:12:22;;;;;;;3.75;1.00;;;11.80;44.60;;;;;;5054262;28;20036;-68